createdAt,value
2019-02-23T00:01:14.981Z,81.70
2019-02-23T00:03:44.158Z,81.90
2019-02-23T00:06:13.301Z,83.00
2019-02-23T00:08:42.443Z,81.90
2019-02-23T00:11:11.593Z,82.40
2019-02-23T00:13:40.710Z,82.40
2019-02-23T00:16:09.902Z,82.20
2019-02-23T00:18:39.205Z,82.90
2019-02-23T00:21:08.316Z,82.90
2019-02-23T00:23:37.477Z,82.90
2019-02-23T00:26:06.613Z,83.50
2019-02-23T00:28:35.721Z,83.00
2019-02-23T00:31:04.873Z,82.90
2019-02-23T00:33:34.017Z,83.30
2019-02-23T00:36:03.174Z,83.40
2019-02-23T00:38:32.306Z,83.60
2019-02-23T00:41:01.523Z,83.60
2019-02-23T00:43:30.637Z,83.80
2019-02-23T00:45:59.744Z,83.20
2019-02-23T00:48:28.965Z,83.30
2019-02-23T00:50:58.090Z,83.30
2019-02-23T00:53:27.193Z,82.80
2019-02-23T00:55:56.362Z,82.90
2019-02-23T00:58:25.564Z,82.70
2019-02-23T01:00:54.677Z,83.50
2019-02-23T01:03:23.901Z,83.30
2019-02-23T01:05:53.010Z,82.80
2019-02-23T01:08:22.135Z,82.70
2019-02-23T01:10:58.131Z,82.70
2019-02-23T01:13:22.196Z,83.00
2019-02-23T01:15:51.309Z,84.00
2019-02-23T01:18:20.451Z,83.40
2019-02-23T01:20:49.613Z,83.40
2019-02-23T01:23:19.229Z,83.60
2019-02-23T01:25:48.389Z,84.10
2019-02-23T01:28:17.909Z,83.40
2019-02-23T01:30:47.037Z,83.40
2019-02-23T01:33:16.198Z,83.40
2019-02-23T01:35:45.313Z,83.20
2019-02-23T01:38:14.457Z,84.00
2019-02-23T01:40:43.592Z,84.50
2019-02-23T01:43:12.746Z,84.30
2019-02-23T01:45:42.710Z,84.50
2019-02-23T01:48:11.997Z,84.40
2019-02-23T01:50:41.193Z,83.80
2019-02-23T01:53:10.306Z,84.30
2019-02-23T01:55:39.421Z,84.10
2019-02-23T01:58:08.549Z,84.50
2019-02-23T02:00:38.679Z,84.60
2019-02-23T02:03:07.858Z,84.40
2019-02-23T02:05:36.988Z,84.50
2019-02-23T02:08:06.140Z,84.90
2019-02-23T02:10:35.304Z,85.10
2019-02-23T02:13:04.464Z,85.40
2019-02-23T02:15:33.598Z,84.90
2019-02-23T02:18:02.737Z,84.50
2019-02-23T02:20:32.076Z,85.40
2019-02-23T02:23:01.269Z,85.10
2019-02-23T02:25:30.377Z,84.50
2019-02-23T02:27:59.525Z,84.20
2019-02-23T02:30:28.662Z,83.60
2019-02-23T02:32:57.794Z,84.40
2019-02-23T02:35:27.010Z,84.40
2019-02-23T02:37:56.137Z,83.90
2019-02-23T02:40:25.246Z,83.90
2019-02-23T02:42:54.393Z,84.00
2019-02-23T02:45:23.509Z,84.20
2019-02-23T02:47:52.629Z,84.70
2019-02-23T02:50:24.605Z,84.80
2019-02-23T02:52:52.621Z,85.20
2019-02-23T02:55:21.721Z,85.70
2019-02-23T02:57:50.855Z,85.90
2019-02-23T03:00:19.997Z,86.70
2019-02-23T03:02:49.140Z,86.90
2019-02-23T03:05:18.331Z,87.80
2019-02-23T03:07:47.445Z,87.70
2019-02-23T03:10:16.549Z,87.50
2019-02-23T03:12:45.687Z,87.70
2019-02-23T03:15:14.786Z,87.50
2019-02-23T03:17:43.941Z,87.90
2019-02-23T03:20:13.056Z,88.20
2019-02-23T03:22:42.177Z,89.30
2019-02-23T03:25:11.740Z,89.00
2019-02-23T03:27:40.875Z,89.30
2019-02-23T03:30:11.088Z,88.90
2019-02-23T03:32:40.357Z,88.70
2019-02-23T03:35:09.557Z,88.20
2019-02-23T03:37:38.755Z,88.10
2019-02-23T03:40:09.299Z,88.50
2019-02-23T03:42:38.543Z,88.50
2019-02-23T03:45:07.789Z,89.00
2019-02-23T03:47:36.927Z,89.50
2019-02-23T03:50:06.899Z,89.30
2019-02-23T03:52:36.034Z,90.00
2019-02-23T03:55:05.603Z,90.00
2019-02-23T03:57:34.730Z,90.50
2019-02-23T04:00:04.024Z,90.60
2019-02-23T04:02:33.172Z,90.30
2019-02-23T04:05:02.307Z,90.00
2019-02-23T04:07:31.461Z,90.10
2019-02-23T04:10:00.630Z,90.10
2019-02-23T04:12:29.768Z,90.00
2019-02-23T04:14:58.886Z,90.00
2019-02-23T04:17:28.024Z,90.30
2019-02-23T04:19:57.226Z,90.40
2019-02-23T04:22:26.315Z,90.30
2019-02-23T04:24:55.455Z,90.40
2019-02-23T04:27:24.641Z,90.50
2019-02-23T04:29:53.737Z,90.50
2019-02-23T04:32:22.925Z,90.50
2019-02-23T04:34:52.421Z,90.50
2019-02-23T04:37:21.540Z,90.70
2019-02-23T04:39:50.795Z,90.70
2019-02-23T04:42:19.973Z,91.00
2019-02-23T04:44:49.118Z,91.10
2019-02-23T04:47:18.236Z,91.20
2019-02-23T04:49:53.873Z,91.00
2019-02-23T04:52:23.085Z,90.80
2019-02-23T04:54:52.245Z,90.80
2019-02-23T04:57:21.409Z,90.80
2019-02-23T04:59:50.560Z,90.90
2019-02-23T05:02:19.757Z,91.10
2019-02-23T05:04:48.928Z,90.90
2019-02-23T05:07:18.041Z,91.00
2019-02-23T05:09:47.139Z,90.90
2019-02-23T05:12:16.287Z,91.10
2019-02-23T05:14:45.479Z,90.90
2019-02-23T05:17:14.662Z,91.20
2019-02-23T05:19:43.849Z,91.00
2019-02-23T05:22:13.008Z,91.10
2019-02-23T05:24:42.121Z,91.40
2019-02-23T05:27:11.251Z,91.20
2019-02-23T05:29:40.365Z,91.20
2019-02-23T05:32:09.525Z,91.10
2019-02-23T05:34:38.631Z,91.00
2019-02-23T05:37:07.846Z,91.30
2019-02-23T05:39:36.981Z,91.50
2019-02-23T05:42:06.145Z,91.30
2019-02-23T05:44:35.258Z,91.30
2019-02-23T05:47:04.601Z,91.30
2019-02-23T05:49:36.666Z,91.40
2019-02-23T05:52:04.587Z,91.10
2019-02-23T05:54:33.714Z,91.00
2019-02-23T05:57:02.862Z,91.00
2019-02-23T05:59:31.998Z,91.00
2019-02-23T06:02:01.177Z,91.00
2019-02-23T06:04:30.334Z,90.80
2019-02-23T06:06:59.474Z,90.70
2019-02-23T06:09:28.603Z,90.50
2019-02-23T06:11:57.782Z,90.90
2019-02-23T06:14:26.884Z,91.10
2019-02-23T06:16:56.003Z,91.00
2019-02-23T06:19:25.137Z,91.10
2019-02-23T06:21:54.748Z,90.70
2019-02-23T06:24:24.058Z,90.90
2019-02-23T06:26:54.115Z,90.70
2019-02-23T06:29:23.238Z,90.70
2019-02-23T06:31:52.378Z,90.50
2019-02-23T06:34:21.546Z,90.70
2019-02-23T06:36:50.815Z,90.60
2019-02-23T06:39:19.986Z,90.80
2019-02-23T06:41:49.114Z,90.50
2019-02-23T06:44:18.289Z,90.20
2019-02-23T06:46:47.458Z,90.10
2019-02-23T06:49:16.577Z,89.90
2019-02-23T06:51:45.768Z,89.70
2019-02-23T06:54:14.880Z,90.40
2019-02-23T06:56:43.993Z,90.20
2019-02-23T06:59:13.201Z,90.40
2019-02-23T07:01:42.297Z,90.00
2019-02-23T07:04:11.474Z,89.50
2019-02-23T07:06:40.861Z,88.60
2019-02-23T07:09:10.002Z,90.00
2019-02-23T07:11:39.127Z,88.80
2019-02-23T07:14:08.272Z,89.00
2019-02-23T07:16:37.414Z,88.40
2019-02-23T07:19:06.569Z,88.20
2019-02-23T07:21:35.725Z,87.50
2019-02-23T07:24:04.853Z,88.00
2019-02-23T07:26:34.025Z,87.90
2019-02-23T07:29:03.144Z,87.40
2019-02-23T07:31:32.253Z,86.70
2019-02-23T07:34:01.437Z,86.80
2019-02-23T07:36:30.578Z,86.30
2019-02-23T07:38:59.749Z,86.00
2019-02-23T07:41:28.928Z,86.60
2019-02-23T07:43:58.040Z,86.00
2019-02-23T07:46:27.220Z,85.30
2019-02-23T07:48:56.393Z,84.80
2019-02-23T07:51:25.509Z,84.90
2019-02-23T07:53:54.628Z,84.90
2019-02-23T07:56:23.833Z,84.40
2019-02-23T07:58:52.962Z,84.10
2019-02-23T08:01:22.094Z,83.20
2019-02-23T08:03:51.254Z,82.90
2019-02-23T08:06:20.445Z,82.80
2019-02-23T08:08:49.587Z,82.90
2019-02-23T08:11:18.746Z,82.70
2019-02-23T08:13:47.904Z,82.90
2019-02-23T08:16:17.086Z,82.20
2019-02-23T08:18:46.253Z,81.70
2019-02-23T08:21:15.371Z,80.80
2019-02-23T08:23:44.501Z,80.00
2019-02-23T08:26:13.642Z,79.70
2019-02-23T08:28:42.774Z,80.40
2019-02-23T08:31:13.377Z,81.00
2019-02-23T08:33:42.785Z,81.30
2019-02-23T08:36:11.937Z,80.70
2019-02-23T08:38:41.196Z,79.80
2019-02-23T08:41:10.349Z,78.80
2019-02-23T08:43:39.515Z,77.60
2019-02-23T08:46:08.745Z,76.90
2019-02-23T08:48:37.938Z,76.20
2019-02-23T08:51:07.069Z,76.00
2019-02-23T08:53:36.241Z,75.20
2019-02-23T08:56:05.353Z,73.90
2019-02-23T08:58:34.465Z,72.70
2019-02-23T09:01:03.594Z,72.40
2019-02-23T09:03:32.699Z,72.60
2019-02-23T09:06:01.861Z,72.20
2019-02-23T09:08:31.104Z,72.40
2019-02-23T09:11:00.281Z,73.00
2019-02-23T09:13:29.405Z,74.00
2019-02-23T09:15:58.538Z,75.30
2019-02-23T09:18:27.653Z,75.80
2019-02-23T09:20:56.832Z,74.80
2019-02-23T09:23:25.961Z,74.30
2019-02-23T09:25:57.739Z,74.30
2019-02-23T09:28:26.017Z,72.60
2019-02-23T09:30:55.150Z,71.60
2019-02-23T09:33:24.295Z,70.90
2019-02-23T09:35:53.437Z,69.80
2019-02-23T09:38:22.645Z,68.00
2019-02-23T09:40:51.745Z,65.00
2019-02-23T09:43:20.881Z,61.00
2019-02-23T09:45:50.049Z,59.90
2019-02-23T09:48:19.177Z,60.70
2019-02-23T09:50:48.286Z,60.10
2019-02-23T09:53:17.405Z,60.00
2019-02-23T09:55:46.550Z,59.40
2019-02-23T09:58:15.648Z,49.20
2019-02-23T10:00:44.762Z,39.70
2019-02-23T10:03:13.865Z,41.20
2019-02-23T10:05:43.028Z,44.70
2019-02-23T10:08:12.146Z,48.10
2019-02-23T10:10:41.256Z,50.70
2019-02-23T10:13:10.473Z,52.00
2019-02-23T10:15:39.625Z,53.20
2019-02-23T10:18:08.726Z,53.60
2019-02-23T10:20:37.842Z,53.90
2019-02-23T10:23:07.038Z,53.30
2019-02-23T10:25:36.248Z,52.70
2019-02-23T10:28:05.572Z,53.20
2019-02-23T10:30:34.683Z,53.40
2019-02-23T10:33:03.828Z,53.40
2019-02-23T10:35:32.968Z,53.20
2019-02-23T10:38:02.097Z,53.10
2019-02-23T10:40:31.330Z,53.40
2019-02-23T10:43:00.561Z,52.50
2019-02-23T10:45:29.695Z,52.50
2019-02-23T10:47:58.875Z,51.90
2019-02-23T10:50:28.061Z,52.50
2019-02-23T10:52:57.181Z,52.50
2019-02-23T10:55:26.301Z,52.60
2019-02-23T10:57:55.425Z,53.30
2019-02-23T11:00:24.552Z,51.10
2019-02-23T11:02:53.753Z,52.10
2019-02-23T11:05:23.261Z,51.10
2019-02-23T11:07:52.452Z,52.00
2019-02-23T11:10:21.962Z,52.00
2019-02-23T11:12:51.205Z,52.30
2019-02-23T11:15:21.477Z,51.90
2019-02-23T11:17:50.584Z,50.70
2019-02-23T11:20:20.101Z,49.90
2019-02-23T11:22:49.323Z,50.10
2019-02-23T11:25:18.429Z,49.90
2019-02-23T11:27:47.578Z,50.20
2019-02-23T11:30:16.929Z,49.90
2019-02-23T11:32:46.083Z,50.20
2019-02-23T11:35:17.481Z,50.30
2019-02-23T11:37:46.081Z,50.60
2019-02-23T11:40:15.208Z,50.10
2019-02-23T11:42:44.325Z,51.20
2019-02-23T11:45:13.450Z,52.00
2019-02-23T11:47:42.589Z,50.90
2019-02-23T11:50:11.753Z,51.30
2019-02-23T11:52:40.871Z,51.30
2019-02-23T11:55:09.989Z,51.00
2019-02-23T11:57:39.125Z,51.00
2019-02-23T12:00:08.896Z,51.40
2019-02-23T12:02:38.018Z,51.80
2019-02-23T12:05:07.663Z,51.20
2019-02-23T12:07:36.793Z,51.80
2019-02-23T12:10:07.605Z,52.40
2019-02-23T12:12:36.709Z,51.60
2019-02-23T12:15:06.345Z,51.70
2019-02-23T12:17:35.617Z,51.60
2019-02-23T12:20:04.841Z,51.90
2019-02-23T12:22:33.973Z,51.90
2019-02-23T12:25:03.088Z,52.10
2019-02-23T12:27:32.222Z,52.60
2019-02-23T12:30:01.419Z,52.20
2019-02-23T12:32:30.540Z,52.10
2019-02-23T12:34:59.713Z,52.20
2019-02-23T12:37:28.813Z,52.10
2019-02-23T12:39:57.920Z,51.70
2019-02-23T12:42:27.718Z,50.90
2019-02-23T12:44:57.052Z,51.50
2019-02-23T12:47:26.171Z,50.50
2019-02-23T12:49:55.270Z,51.30
2019-02-23T12:52:24.398Z,50.90
2019-02-23T12:54:53.513Z,50.90
2019-02-23T12:57:22.725Z,51.10
2019-02-23T12:59:51.850Z,50.90
2019-02-23T13:02:20.997Z,50.80
2019-02-23T13:04:50.345Z,50.40
2019-02-23T13:07:19.561Z,51.70
2019-02-23T13:09:51.834Z,50.70
2019-02-23T13:12:28.737Z,50.40
2019-02-23T13:15:18.871Z,50.30
2019-02-23T13:18:16.870Z,50.70
2019-02-23T13:21:07.745Z,50.60
2019-02-23T13:23:56.733Z,50.00
2019-02-23T13:26:57.253Z,49.90
2019-02-23T13:29:39.677Z,49.80
2019-02-23T13:33:14.353Z,49.40
2019-02-23T13:36:39.753Z,50.90
2019-02-23T13:39:34.065Z,50.70
2019-02-23T13:42:49.474Z,51.40
2019-02-23T13:45:38.398Z,50.50
2019-02-23T13:48:39.201Z,49.20
2019-02-23T13:51:34.688Z,48.70
2019-02-23T13:54:38.614Z,49.70
2019-02-23T13:57:42.925Z,50.60
2019-02-23T14:00:46.585Z,51.40
2019-02-23T14:03:42.209Z,51.50
2019-02-23T14:06:55.427Z,51.70
2019-02-23T14:10:08.393Z,51.70
2019-02-23T14:13:20.082Z,51.20
2019-02-23T14:16:36.185Z,51.10
2019-02-23T14:19:43.510Z,50.40
2019-02-23T14:22:26.737Z,50.80
2019-02-23T14:25:42.131Z,50.40
2019-02-23T14:29:10.565Z,50.40
2019-02-23T14:32:28.197Z,50.60
2019-02-23T14:35:27.202Z,51.10
2019-02-23T14:38:32.364Z,50.90
2019-02-23T14:41:15.489Z,51.10
2019-02-23T14:44:13.608Z,51.40
2019-02-23T14:47:08.378Z,51.20
2019-02-23T14:50:17.385Z,50.70
2019-02-23T14:53:03.261Z,50.70
2019-02-23T14:56:29.049Z,50.80
2019-02-23T14:59:37.036Z,50.40
2019-02-23T15:02:32.205Z,49.80
2019-02-23T15:05:35.421Z,50.00
2019-02-23T15:08:30.013Z,49.70
2019-02-23T15:11:33.875Z,49.90
2019-02-23T15:14:34.442Z,50.80
2019-02-23T15:17:51.549Z,50.20
2019-02-23T15:20:58.018Z,50.00
2019-02-23T15:24:11.221Z,49.40
2019-02-23T15:27:24.391Z,49.70
2019-02-23T15:30:46.815Z,49.50
2019-02-23T15:33:51.326Z,49.00
2019-02-23T15:37:00.231Z,49.50
2019-02-23T15:40:07.584Z,49.30
2019-02-23T15:43:14.932Z,48.40
2019-02-23T15:46:31.792Z,47.60
2019-02-23T15:49:30.055Z,47.80
2019-02-23T15:52:00.104Z,48.20
2019-02-23T15:54:29.424Z,48.90
2019-02-23T15:56:58.705Z,48.60
2019-02-23T15:59:27.922Z,48.40
2019-02-23T16:01:57.066Z,48.80
2019-02-23T16:04:26.193Z,48.90
2019-02-23T16:06:55.373Z,48.80
2019-02-23T16:09:24.485Z,49.70
2019-02-23T16:11:53.677Z,49.70
2019-02-23T16:14:22.818Z,49.90
2019-02-23T16:16:52.146Z,49.60
2019-02-23T16:19:21.253Z,49.80
2019-02-23T16:21:52.791Z,50.60
2019-02-23T16:24:21.278Z,50.30
2019-02-23T16:26:50.431Z,50.70
2019-02-23T16:29:19.621Z,50.90
2019-02-23T16:31:48.746Z,51.30
2019-02-23T16:34:17.927Z,51.40
2019-02-23T16:36:47.134Z,51.90
2019-02-23T16:39:16.270Z,52.20
2019-02-23T16:41:45.466Z,51.40
2019-02-23T16:44:14.581Z,50.30
2019-02-23T16:46:46.322Z,50.50
2019-02-23T16:49:14.543Z,50.50
2019-02-23T16:51:43.693Z,50.50
2019-02-23T16:54:12.809Z,50.50
2019-02-23T16:56:41.912Z,51.20
2019-02-23T16:59:11.049Z,50.40
2019-02-23T17:01:40.179Z,51.50
2019-02-23T17:04:09.444Z,51.10
2019-02-23T17:06:38.661Z,51.50
2019-02-23T17:09:08.042Z,51.40
2019-02-23T17:11:37.166Z,51.30
2019-02-23T17:14:06.363Z,51.30
2019-02-23T17:16:35.567Z,52.10
2019-02-23T17:19:04.753Z,51.00
2019-02-23T17:21:33.934Z,51.90
2019-02-23T17:24:03.118Z,51.60
2019-02-23T17:26:32.385Z,51.60
2019-02-23T17:29:01.577Z,51.90
2019-02-23T17:31:30.812Z,51.70
2019-02-23T17:33:59.997Z,52.20
2019-02-23T17:36:29.115Z,52.20
2019-02-23T17:38:58.277Z,52.10
2019-02-23T17:41:27.441Z,52.60
2019-02-23T17:43:56.604Z,52.50
2019-02-23T17:46:26.029Z,52.80
2019-02-23T17:48:55.199Z,52.90
2019-02-23T17:51:24.337Z,52.90
2019-02-23T17:53:53.494Z,53.20
2019-02-23T17:56:22.797Z,53.30
2019-02-23T17:58:52.038Z,53.10
2019-02-23T18:01:21.261Z,53.60
2019-02-23T18:03:50.409Z,52.90
2019-02-23T18:06:19.553Z,53.60
2019-02-23T18:08:48.704Z,53.90
2019-02-23T18:11:17.875Z,54.00
2019-02-23T18:13:46.976Z,54.30
2019-02-23T18:16:16.092Z,55.00
2019-02-23T18:18:45.245Z,55.30
2019-02-23T18:21:14.461Z,55.00
2019-02-23T18:23:43.637Z,55.30
2019-02-23T18:26:18.965Z,55.10
2019-02-23T18:28:43.729Z,55.60
2019-02-23T18:31:12.882Z,55.50
2019-02-23T18:33:41.989Z,56.10
2019-02-23T18:36:11.149Z,55.40
2019-02-23T18:38:40.297Z,55.20
2019-02-23T18:41:09.621Z,54.90
2019-02-23T18:43:38.772Z,54.80
2019-02-23T18:46:07.902Z,55.00
2019-02-23T18:48:37.109Z,54.90
2019-02-23T18:51:06.236Z,55.10
2019-02-23T18:53:35.334Z,54.90
2019-02-23T18:56:05.944Z,54.90
2019-02-23T18:58:35.074Z,55.30
2019-02-23T19:01:04.198Z,55.10
2019-02-23T19:03:33.431Z,55.10
2019-02-23T19:06:02.597Z,55.20
2019-02-23T19:08:31.709Z,55.10
2019-02-23T19:11:00.809Z,55.20
2019-02-23T19:13:29.964Z,55.10
2019-02-23T19:15:59.159Z,55.30
2019-02-23T19:18:28.257Z,55.20
2019-02-23T19:20:57.462Z,55.50
2019-02-23T19:23:26.621Z,55.50
2019-02-23T19:25:55.733Z,55.70
2019-02-23T19:28:24.933Z,56.20
2019-02-23T19:30:54.077Z,56.30
2019-02-23T19:33:23.292Z,56.20
2019-02-23T19:35:52.397Z,56.50
2019-02-23T19:38:21.505Z,56.70
2019-02-23T19:40:50.612Z,56.70
2019-02-23T19:43:19.741Z,56.50
2019-02-23T19:45:48.853Z,57.30
2019-02-23T19:48:17.977Z,57.50
2019-02-23T19:50:50.877Z,57.20
2019-02-23T19:53:20.013Z,57.10
2019-02-23T19:55:49.157Z,57.50
2019-02-23T19:58:18.294Z,57.50
2019-02-23T20:00:47.422Z,57.70
2019-02-23T20:03:16.533Z,58.20
2019-02-23T20:05:45.733Z,58.40
2019-02-23T20:08:14.907Z,58.60
2019-02-23T20:10:44.050Z,59.20
2019-02-23T20:13:13.197Z,60.10
2019-02-23T20:15:42.314Z,59.90
2019-02-23T20:18:11.437Z,59.60
2019-02-23T20:20:40.590Z,59.60
2019-02-23T20:23:09.813Z,59.80
2019-02-23T20:25:38.928Z,59.40
2019-02-23T20:28:08.169Z,59.80
2019-02-23T20:30:37.319Z,60.70
2019-02-23T20:33:06.453Z,60.80
2019-02-23T20:35:35.657Z,60.30
2019-02-23T20:38:04.925Z,60.50
2019-02-23T20:40:34.038Z,61.00
2019-02-23T20:43:03.193Z,61.00
2019-02-23T20:45:32.321Z,61.00
2019-02-23T20:48:01.581Z,61.40
2019-02-23T20:50:30.717Z,61.10
2019-02-23T20:52:59.853Z,61.70
2019-02-23T20:55:28.990Z,61.50
2019-02-23T20:57:58.205Z,61.90
2019-02-23T21:00:27.401Z,62.20
2019-02-23T21:02:56.621Z,62.00
2019-02-23T21:05:25.840Z,62.80
2019-02-23T21:07:55.037Z,61.60
2019-02-23T21:10:24.223Z,62.20
2019-02-23T21:12:53.531Z,62.20
2019-02-23T21:15:22.653Z,62.70
2019-02-23T21:17:51.760Z,63.30
2019-02-23T21:20:20.937Z,63.00
2019-02-23T21:22:50.073Z,62.70
2019-02-23T21:25:19.214Z,63.30
2019-02-23T21:27:48.424Z,63.30
2019-02-23T21:30:17.625Z,63.60
2019-02-23T21:32:46.755Z,63.90
2019-02-23T21:35:15.955Z,64.60
2019-02-23T21:37:45.085Z,64.10
2019-02-23T21:40:14.289Z,64.20
2019-02-23T21:42:43.498Z,64.20
2019-02-23T21:45:12.654Z,65.10
2019-02-23T21:47:41.794Z,65.10
2019-02-23T21:50:11.054Z,65.20
2019-02-23T21:52:40.301Z,66.00
2019-02-23T21:55:09.486Z,66.00
2019-02-23T21:57:38.875Z,65.40
2019-02-23T22:00:08.139Z,66.00
2019-02-23T22:02:37.383Z,65.80
2019-02-23T22:05:12.443Z,66.40
2019-02-23T22:07:37.713Z,66.70
2019-02-23T22:10:07.483Z,67.30
2019-02-23T22:12:36.774Z,67.40
2019-02-23T22:15:06.427Z,67.30
2019-02-23T22:17:35.607Z,68.50
2019-02-23T22:20:05.045Z,68.90
2019-02-23T22:22:34.208Z,69.10
2019-02-23T22:25:03.343Z,69.60
2019-02-23T22:27:32.470Z,69.90
2019-02-23T22:30:01.633Z,69.50
2019-02-23T22:32:30.912Z,69.90
2019-02-23T22:35:00.546Z,70.10
2019-02-23T22:37:29.834Z,70.70
2019-02-23T22:39:58.953Z,71.00
2019-02-23T22:42:28.067Z,71.40
2019-02-23T22:44:57.184Z,71.40
2019-02-23T22:47:26.380Z,71.80
2019-02-23T22:49:55.498Z,71.40
2019-02-23T22:52:24.665Z,71.80
2019-02-23T22:54:53.801Z,72.10
2019-02-23T22:57:22.916Z,72.20
2019-02-23T22:59:52.054Z,72.90
2019-02-23T23:02:21.360Z,73.40
2019-02-23T23:04:50.481Z,73.80
2019-02-23T23:07:19.605Z,74.30
2019-02-23T23:09:48.709Z,74.60
2019-02-23T23:12:17.813Z,74.00
2019-02-23T23:14:46.970Z,73.20
2019-02-23T23:17:16.097Z,73.40
2019-02-23T23:19:45.202Z,73.90
2019-02-23T23:22:14.313Z,74.80
2019-02-23T23:24:43.436Z,75.40
2019-02-23T23:27:12.568Z,75.20
2019-02-23T23:29:41.701Z,75.10
2019-02-23T23:32:10.797Z,75.20
2019-02-23T23:34:39.986Z,75.70
2019-02-23T23:37:09.131Z,75.80
2019-02-23T23:39:38.256Z,76.20
2019-02-23T23:42:07.436Z,76.00
2019-02-23T23:44:36.552Z,75.50
2019-02-23T23:47:05.757Z,75.40
2019-02-23T23:49:34.894Z,75.50
2019-02-23T23:52:04.091Z,75.80
2019-02-23T23:54:33.289Z,75.30
2019-02-23T23:57:02.546Z,75.40
2019-02-23T23:59:31.658Z,75.20
